createdAt,value
2017-11-28T00:00:03.754Z,1001.75
2017-11-28T00:00:44.283Z,1001.74
2017-11-28T00:01:24.794Z,1001.76
2017-11-28T00:02:05.328Z,1001.78
2017-11-28T00:02:45.869Z,1001.79
2017-11-28T00:03:26.392Z,1001.72
2017-11-28T00:04:06.924Z,1001.75
2017-11-28T00:04:47.462Z,1001.78
2017-11-28T00:05:27.989Z,1001.74
2017-11-28T00:06:08.516Z,1001.76
2017-11-28T00:06:49.055Z,1001.77
2017-11-28T00:07:29.592Z,1001.79
2017-11-28T00:08:10.123Z,1001.77
2017-11-28T00:08:50.661Z,1001.78
2017-11-28T00:09:31.183Z,1001.78
2017-11-28T00:10:11.730Z,1001.79
2017-11-28T00:10:52.248Z,1001.8
2017-11-28T00:11:32.780Z,1001.79
2017-11-28T00:12:13.302Z,1001.8
2017-11-28T00:12:53.823Z,1001.8
2017-11-28T00:13:34.351Z,1001.78
2017-11-28T00:14:14.889Z,1001.78
2017-11-28T00:14:55.419Z,1001.83
2017-11-28T00:15:35.929Z,1001.78
2017-11-28T00:16:16.470Z,1001.78
2017-11-28T00:16:56.997Z,1001.79
2017-11-28T00:17:37.516Z,1001.85
2017-11-28T00:18:18.054Z,1001.82
2017-11-28T00:18:58.561Z,1001.86
2017-11-28T00:19:39.081Z,1001.79
2017-11-28T00:20:19.613Z,1001.82
2017-11-28T00:21:00.125Z,1001.81
2017-11-28T00:21:40.659Z,1001.82
2017-11-28T00:22:21.191Z,1001.79
2017-11-28T00:23:01.716Z,1001.82
2017-11-28T00:23:42.235Z,1001.78
2017-11-28T00:24:22.765Z,1001.8
2017-11-28T00:25:03.303Z,1001.8
2017-11-28T00:25:43.830Z,1001.8
2017-11-28T00:26:24.348Z,1001.8
2017-11-28T00:27:04.874Z,1001.81
2017-11-28T00:27:45.404Z,1001.82
2017-11-28T00:28:25.933Z,1001.8
2017-11-28T00:29:06.477Z,1001.82
2017-11-28T00:29:46.984Z,1001.78
2017-11-28T00:30:27.518Z,1001.83
2017-11-28T00:31:08.048Z,1001.83
2017-11-28T00:31:48.590Z,1001.81
2017-11-28T00:32:29.137Z,1001.82
2017-11-28T00:33:09.650Z,1001.79
2017-11-28T00:33:50.165Z,1001.85
2017-11-28T00:34:30.695Z,1001.81
2017-11-28T00:35:11.199Z,1001.81
2017-11-28T00:35:51.730Z,1001.84
2017-11-28T00:36:32.252Z,1001.82
2017-11-28T00:37:12.777Z,1001.8
2017-11-28T00:37:53.300Z,1001.79
2017-11-28T00:38:33.813Z,1001.78
2017-11-28T00:39:14.347Z,1001.77
2017-11-28T00:39:54.871Z,1001.74
2017-11-28T00:40:35.418Z,1001.76
2017-11-28T00:41:15.947Z,1001.75
2017-11-28T00:41:56.468Z,1001.78
2017-11-28T00:42:36.996Z,1001.76
2017-11-28T00:43:17.530Z,1001.76
2017-11-28T00:43:58.061Z,1001.77
2017-11-28T00:44:38.602Z,1001.75
2017-11-28T00:45:19.114Z,1001.73
2017-11-28T00:45:59.650Z,1001.74
2017-11-28T00:46:40.168Z,1001.75
2017-11-28T00:47:20.700Z,1001.74
2017-11-28T00:48:01.229Z,1001.72
2017-11-28T00:48:41.762Z,1001.7
2017-11-28T00:49:22.303Z,1001.67
2017-11-28T00:50:02.838Z,1001.7
2017-11-28T00:50:43.358Z,1001.66
2017-11-28T00:51:23.881Z,1001.69
2017-11-28T00:52:04.408Z,1001.66
2017-11-28T00:52:44.930Z,1001.67
2017-11-28T00:53:25.460Z,1001.66
2017-11-28T00:54:05.991Z,1001.64
2017-11-28T00:54:46.516Z,1001.64
2017-11-28T00:55:27.054Z,1001.63
2017-11-28T00:56:07.565Z,1001.63
2017-11-28T00:56:48.099Z,1001.65
2017-11-28T00:57:28.621Z,1001.64
2017-11-28T00:58:09.163Z,1001.65
2017-11-28T00:58:49.683Z,1001.66
2017-11-28T00:59:30.216Z,1001.62
2017-11-28T01:00:10.748Z,1001.62
2017-11-28T01:00:51.278Z,1001.6
2017-11-28T01:01:31.806Z,1001.6
2017-11-28T01:02:12.339Z,1001.59
2017-11-28T01:02:52.855Z,1001.6
2017-11-28T01:03:33.402Z,1001.6
2017-11-28T01:04:13.930Z,1001.57
2017-11-28T01:04:54.464Z,1001.59
2017-11-28T01:05:34.994Z,1001.57
2017-11-28T01:06:15.513Z,1001.57
2017-11-28T01:06:56.032Z,1001.55
2017-11-28T01:07:36.568Z,1001.55
2017-11-28T01:08:17.098Z,1001.55
2017-11-28T01:08:57.620Z,1001.52
2017-11-28T01:09:38.152Z,1001.56
2017-11-28T01:10:18.684Z,1001.57
2017-11-28T01:10:59.245Z,1001.58
2017-11-28T01:11:39.779Z,1001.56
2017-11-28T01:12:20.318Z,1001.54
2017-11-28T01:13:00.836Z,1001.51
2017-11-28T01:13:41.354Z,1001.53
2017-11-28T01:14:21.867Z,1001.5
2017-11-28T01:15:02.397Z,1001.49
2017-11-28T01:15:42.920Z,1001.45
2017-11-28T01:16:23.451Z,1001.46
2017-11-28T01:17:03.982Z,1001.46
2017-11-28T01:17:44.518Z,1001.42
2017-11-28T01:18:25.054Z,1001.4
2017-11-28T01:19:05.580Z,1001.4
2017-11-28T01:19:46.118Z,1001.45
2017-11-28T01:20:26.641Z,1001.4
2017-11-28T01:21:07.174Z,1001.38
2017-11-28T01:21:47.704Z,1001.37
2017-11-28T01:22:28.235Z,1001.35
2017-11-28T01:23:08.770Z,1001.35
2017-11-28T01:23:49.300Z,1001.38
2017-11-28T01:24:29.841Z,1001.4
2017-11-28T01:25:10.374Z,1001.37
2017-11-28T01:25:50.909Z,1001.38
2017-11-28T01:26:31.428Z,1001.36
2017-11-28T01:27:11.949Z,1001.35
2017-11-28T01:27:52.484Z,1001.37
2017-11-28T01:28:33.003Z,1001.35
2017-11-28T01:29:13.529Z,1001.32
2017-11-28T01:29:54.072Z,1001.32
2017-11-28T01:30:34.613Z,1001.34
2017-11-28T01:31:15.144Z,1001.35
2017-11-28T01:31:55.677Z,1001.3
2017-11-28T01:32:36.209Z,1001.29
2017-11-28T01:33:16.729Z,1001.34
2017-11-28T01:33:57.253Z,1001.29
2017-11-28T01:34:37.792Z,1001.24
2017-11-28T01:35:18.329Z,1001.25
2017-11-28T01:35:58.878Z,1001.25
2017-11-28T01:36:39.409Z,1001.29
2017-11-28T01:37:19.936Z,1001.28
2017-11-28T01:38:00.467Z,1001.28
2017-11-28T01:38:41.003Z,1001.29
2017-11-28T01:39:21.528Z,1001.35
2017-11-28T01:40:02.063Z,1001.28
2017-11-28T01:40:42.612Z,1001.27
2017-11-28T01:41:23.138Z,1001.29
2017-11-28T01:42:03.655Z,1001.26
2017-11-28T01:42:44.187Z,1001.26
2017-11-28T01:43:24.709Z,1001.27
2017-11-28T01:44:05.236Z,1001.28
2017-11-28T01:44:45.779Z,1001.26
2017-11-28T01:45:26.299Z,1001.29
2017-11-28T01:46:06.835Z,1001.3
2017-11-28T01:46:47.367Z,1001.31
2017-11-28T01:47:27.889Z,1001.3
2017-11-28T01:48:08.421Z,1001.37
2017-11-28T01:48:48.951Z,1001.39
2017-11-28T01:49:29.488Z,1001.36
2017-11-28T01:50:10.011Z,1001.35
2017-11-28T01:50:50.538Z,1001.33
2017-11-28T01:51:31.067Z,1001.33
2017-11-28T01:52:11.607Z,1001.27
2017-11-28T01:52:52.155Z,1001.26
2017-11-28T01:53:32.692Z,1001.25
2017-11-28T01:54:13.217Z,1001.29
2017-11-28T01:54:53.743Z,1001.26
2017-11-28T01:55:34.262Z,1001.24
2017-11-28T01:56:14.795Z,1001.23
2017-11-28T01:56:55.331Z,1001.21
2017-11-28T01:57:35.858Z,1001.18
2017-11-28T01:58:16.397Z,1001.17
2017-11-28T01:58:56.937Z,1001.14
2017-11-28T01:59:37.467Z,1001.19
2017-11-28T02:00:17.993Z,1001.13
2017-11-28T02:00:58.528Z,1001.14
2017-11-28T02:01:39.036Z,1001.16
2017-11-28T02:02:19.564Z,1001.16
2017-11-28T02:03:00.096Z,1001.12
2017-11-28T02:03:40.650Z,1001.17
2017-11-28T02:04:21.184Z,1001.12
2017-11-28T02:05:01.712Z,1001.13
2017-11-28T02:05:42.240Z,1001.12
2017-11-28T02:06:22.786Z,1001.1
2017-11-28T02:07:03.317Z,1001.06
2017-11-28T02:07:43.849Z,1001.05
2017-11-28T02:08:24.368Z,1001.05
2017-11-28T02:09:04.887Z,1001.05
2017-11-28T02:09:45.427Z,1001.03
2017-11-28T02:10:25.948Z,1001.05
2017-11-28T02:11:06.494Z,1001.03
2017-11-28T02:11:47.021Z,1001.01
2017-11-28T02:12:27.555Z,1001.01
2017-11-28T02:13:08.077Z,1001.01
2017-11-28T02:13:48.599Z,1001.04
2017-11-28T02:14:29.113Z,1001.01
2017-11-28T02:15:09.639Z,1001.04
2017-11-28T02:15:50.170Z,1001.02
2017-11-28T02:16:30.709Z,1001.01
2017-11-28T02:17:11.229Z,1000.95
2017-11-28T02:17:51.723Z,1000.95
2017-11-28T02:18:32.278Z,1000.93
2017-11-28T02:19:12.822Z,1000.91
2017-11-28T02:19:53.320Z,1000.92
2017-11-28T02:20:33.875Z,1000.91
2017-11-28T02:21:14.415Z,1000.95
2017-11-28T02:21:54.901Z,1000.96
2017-11-28T02:22:35.419Z,1000.89
2017-11-28T02:23:15.942Z,1000.93
2017-11-28T02:23:56.480Z,1000.9
2017-11-28T02:24:37.011Z,1000.9
2017-11-28T02:25:17.541Z,1000.84
2017-11-28T02:25:58.047Z,1000.84
2017-11-28T02:26:38.587Z,1000.84
2017-11-28T02:27:19.125Z,1000.84
2017-11-28T02:27:59.671Z,1000.82
2017-11-28T02:28:40.195Z,1000.81
2017-11-28T02:29:20.704Z,1000.8
2017-11-28T02:30:01.225Z,1000.8
2017-11-28T02:30:41.736Z,1000.78
2017-11-28T02:31:22.247Z,1000.77
2017-11-28T02:32:02.866Z,1000.78
2017-11-28T02:32:43.353Z,1000.7
2017-11-28T02:33:23.883Z,1000.7
2017-11-28T02:34:04.397Z,1000.67
2017-11-28T02:34:44.943Z,1000.64
2017-11-28T02:35:25.450Z,1000.66
2017-11-28T02:36:05.979Z,1000.65
2017-11-28T02:36:46.504Z,1000.66
2017-11-28T02:37:27.032Z,1000.68
2017-11-28T02:38:07.552Z,1000.68
2017-11-28T02:38:48.079Z,1000.66
2017-11-28T02:39:28.611Z,1000.69
2017-11-28T02:40:09.139Z,1000.66
2017-11-28T02:40:49.663Z,1000.69
2017-11-28T02:41:30.197Z,1000.66
2017-11-28T02:42:10.738Z,1000.66
2017-11-28T02:42:51.263Z,1000.63
2017-11-28T02:43:31.779Z,1000.66
2017-11-28T02:44:12.307Z,1000.65
2017-11-28T02:44:52.841Z,1000.64
2017-11-28T02:45:33.361Z,1000.63
2017-11-28T02:46:13.923Z,1000.65
2017-11-28T02:46:54.456Z,1000.61
2017-11-28T02:47:34.979Z,1000.63
2017-11-28T02:48:15.511Z,1000.6
2017-11-28T02:48:56.039Z,1000.59
2017-11-28T02:49:36.558Z,1000.57
2017-11-28T02:50:17.096Z,1000.56
2017-11-28T02:50:57.627Z,1000.53
2017-11-28T02:51:38.162Z,1000.54
2017-11-28T02:52:18.694Z,1000.54
2017-11-28T02:52:59.228Z,1000.51
2017-11-28T02:53:39.761Z,1000.52
2017-11-28T02:54:20.277Z,1000.51
2017-11-28T02:55:00.794Z,1000.53
2017-11-28T02:55:41.328Z,1000.51
2017-11-28T02:56:21.849Z,1000.49
2017-11-28T02:57:02.374Z,1000.51
2017-11-28T02:57:42.900Z,1000.48
2017-11-28T02:58:23.429Z,1000.48
2017-11-28T02:59:03.964Z,1000.47
2017-11-28T02:59:44.475Z,1000.47
2017-11-28T03:00:25.001Z,1000.47
2017-11-28T03:01:05.545Z,1000.48
2017-11-28T03:01:46.061Z,1000.44
2017-11-28T03:02:26.600Z,1000.46
2017-11-28T03:03:07.121Z,1000.45
2017-11-28T03:03:47.635Z,1000.42
2017-11-28T03:04:28.174Z,1000.43
2017-11-28T03:05:08.699Z,1000.44
2017-11-28T03:05:49.226Z,1000.42
2017-11-28T03:06:29.753Z,1000.45
2017-11-28T03:07:10.266Z,1000.46
2017-11-28T03:07:50.780Z,1000.47
2017-11-28T03:08:31.305Z,1000.49
2017-11-28T03:09:11.838Z,1000.48
2017-11-28T03:09:52.361Z,1000.51
2017-11-28T03:10:32.881Z,1000.5
2017-11-28T03:11:13.428Z,1000.53
2017-11-28T03:11:53.946Z,1000.49
2017-11-28T03:12:34.478Z,1000.49
2017-11-28T03:13:14.998Z,1000.47
2017-11-28T03:13:55.520Z,1000.5
2017-11-28T03:14:36.031Z,1000.48
2017-11-28T03:15:16.555Z,1000.48
2017-11-28T03:15:57.078Z,1000.47
2017-11-28T03:16:37.621Z,1000.48
2017-11-28T03:17:18.154Z,1000.46
2017-11-28T03:17:58.685Z,1000.44
2017-11-28T03:18:39.213Z,1000.43
2017-11-28T03:19:19.725Z,1000.39
2017-11-28T03:20:00.250Z,1000.45
2017-11-28T03:20:40.777Z,1000.39
2017-11-28T03:21:21.287Z,1000.43
2017-11-28T03:22:01.806Z,1000.38
2017-11-28T03:22:42.329Z,1000.37
2017-11-28T03:23:22.829Z,1000.4
2017-11-28T03:24:03.364Z,1000.38
2017-11-28T03:24:43.886Z,1000.37
2017-11-28T03:25:24.411Z,1000.41
2017-11-28T03:26:04.947Z,1000.42
2017-11-28T03:26:45.476Z,1000.38
2017-11-28T03:27:26.007Z,1000.4
2017-11-28T03:28:06.524Z,1000.37
2017-11-28T03:28:47.050Z,1000.39
2017-11-28T03:29:27.579Z,1000.38
2017-11-28T03:30:08.104Z,1000.38
2017-11-28T03:30:48.684Z,1000.33
2017-11-28T03:31:29.195Z,1000.39
2017-11-28T03:32:09.701Z,1000.39
2017-11-28T03:32:50.227Z,1000.38
2017-11-28T03:33:30.758Z,1000.39
2017-11-28T03:34:11.274Z,1000.42
2017-11-28T03:34:51.794Z,1000.43
2017-11-28T03:35:32.333Z,1000.43
2017-11-28T03:36:12.862Z,1000.39
2017-11-28T03:36:53.393Z,1000.4
2017-11-28T03:37:33.921Z,1000.36
2017-11-28T03:38:14.428Z,1000.38
2017-11-28T03:38:54.955Z,1000.35
2017-11-28T03:39:35.486Z,1000.38
2017-11-28T03:40:16.004Z,1000.36
2017-11-28T03:40:56.521Z,1000.35
2017-11-28T03:41:37.058Z,1000.36
2017-11-28T03:42:17.587Z,1000.39
2017-11-28T03:42:58.106Z,1000.36
2017-11-28T03:43:38.640Z,1000.4
2017-11-28T03:44:19.158Z,1000.39
2017-11-28T03:44:59.694Z,1000.35
2017-11-28T03:45:40.223Z,1000.34
2017-11-28T03:46:20.737Z,1000.3
2017-11-28T03:47:01.262Z,1000.33
2017-11-28T03:47:41.790Z,1000.34
2017-11-28T03:48:22.309Z,1000.33
2017-11-28T03:49:02.819Z,1000.37
2017-11-28T03:49:43.342Z,1000.37
2017-11-28T03:50:23.863Z,1000.32
2017-11-28T03:51:04.394Z,1000.3
2017-11-28T03:51:44.921Z,1000.31
2017-11-28T03:52:25.457Z,1000.31
2017-11-28T03:53:05.980Z,1000.29
2017-11-28T03:53:46.487Z,1000.26
2017-11-28T03:54:27.007Z,1000.26
2017-11-28T03:55:07.537Z,1000.24
2017-11-28T03:55:48.060Z,1000.26
2017-11-28T03:56:28.579Z,1000.24
2017-11-28T03:57:09.094Z,1000.26
2017-11-28T03:57:49.613Z,1000.26
2017-11-28T03:58:30.140Z,1000.3
2017-11-28T03:59:10.665Z,1000.3
2017-11-28T03:59:51.191Z,1000.25
2017-11-28T04:00:31.724Z,1000.25
2017-11-28T04:01:12.226Z,1000.26
2017-11-28T04:01:52.756Z,1000.26
2017-11-28T04:02:33.281Z,1000.22
2017-11-28T04:03:13.840Z,1000.2
2017-11-28T04:03:54.369Z,1000.25
2017-11-28T04:04:34.889Z,1000.21
2017-11-28T04:05:15.410Z,1000.21
2017-11-28T04:05:55.941Z,1000.22
2017-11-28T04:06:36.456Z,1000.21
2017-11-28T04:07:16.977Z,1000.22
2017-11-28T04:07:57.505Z,1000.19
2017-11-28T04:08:38.026Z,1000.23
2017-11-28T04:09:18.572Z,1000.25
2017-11-28T04:09:59.078Z,1000.25
2017-11-28T04:10:39.611Z,1000.25
2017-11-28T04:11:20.173Z,1000.27
2017-11-28T04:12:00.708Z,1000.29
2017-11-28T04:12:41.234Z,1000.33
2017-11-28T04:13:21.752Z,1000.31
2017-11-28T04:14:02.275Z,1000.33
2017-11-28T04:14:42.813Z,1000.3
2017-11-28T04:15:23.336Z,1000.31
2017-11-28T04:16:03.889Z,1000.32
2017-11-28T04:16:44.414Z,1000.27
2017-11-28T04:17:24.955Z,1000.28
2017-11-28T04:18:05.469Z,1000.3
2017-11-28T04:18:46.013Z,1000.3
2017-11-28T04:19:26.549Z,1000.31
2017-11-28T04:20:07.055Z,1000.32
2017-11-28T04:20:47.590Z,1000.33
2017-11-28T04:21:28.117Z,1000.32
2017-11-28T04:22:08.639Z,1000.3
2017-11-28T04:22:49.161Z,1000.3
2017-11-28T04:23:29.706Z,1000.31
2017-11-28T04:24:10.329Z,1000.32
2017-11-28T04:24:50.848Z,1000.27
2017-11-28T04:25:31.389Z,1000.25
2017-11-28T04:26:11.991Z,1000.22
2017-11-28T04:26:52.625Z,1000.22
2017-11-28T04:27:33.144Z,1000.23
2017-11-28T04:28:13.664Z,1000.26
2017-11-28T04:28:54.195Z,1000.25
2017-11-28T04:29:34.739Z,1000.23
2017-11-28T04:30:15.269Z,1000.26
2017-11-28T04:30:55.874Z,1000.27
2017-11-28T04:31:36.414Z,1000.28
2017-11-28T04:32:16.947Z,1000.28
2017-11-28T04:32:57.529Z,1000.25
2017-11-28T04:33:38.070Z,1000.26
2017-11-28T04:34:18.599Z,1000.27
2017-11-28T04:34:59.131Z,1000.25
2017-11-28T04:35:39.662Z,1000.27
2017-11-28T04:36:20.189Z,1000.26
2017-11-28T04:37:00.706Z,1000.2
2017-11-28T04:37:41.221Z,1000.21
2017-11-28T04:38:21.835Z,1000.21
2017-11-28T04:39:02.427Z,1000.21
2017-11-28T04:39:42.923Z,1000.22
2017-11-28T04:40:23.454Z,1000.22
2017-11-28T04:41:03.975Z,1000.22
2017-11-28T04:41:44.490Z,1000.16
2017-11-28T04:42:25.027Z,1000.23
2017-11-28T04:43:05.589Z,1000.21
2017-11-28T04:43:46.102Z,1000.24
2017-11-28T04:44:26.637Z,1000.24
2017-11-28T04:45:07.166Z,1000.23
2017-11-28T04:45:48.593Z,1000.23
2017-11-28T04:46:29.116Z,1000.25
2017-11-28T04:47:10.304Z,1000.28
2017-11-28T04:47:51.962Z,1000.28
2017-11-28T04:48:33.274Z,1000.31
2017-11-28T04:49:13.797Z,1000.32
2017-11-28T04:49:54.969Z,1000.32
2017-11-28T04:50:37.227Z,1000.31
2017-11-28T04:51:19.528Z,1000.34
2017-11-28T04:52:02.036Z,1000.31
2017-11-28T04:53:56.065Z,1000.3
2017-11-28T04:54:36.582Z,1000.31
2017-11-28T04:55:17.119Z,1000.26
2017-11-28T04:55:57.660Z,1000.29
2017-11-28T04:56:38.182Z,1000.27
2017-11-28T04:57:18.695Z,1000.27
2017-11-28T04:57:59.215Z,1000.23
2017-11-28T04:58:39.744Z,1000.26
2017-11-28T04:59:20.294Z,1000.24
2017-11-28T05:00:00.826Z,1000.24
2017-11-28T05:00:41.332Z,1000.22
2017-11-28T05:01:21.861Z,1000.2
2017-11-28T05:02:02.399Z,1000.26
2017-11-28T05:02:42.923Z,1000.27
2017-11-28T05:03:23.444Z,1000.26
2017-11-28T05:04:03.962Z,1000.28
2017-11-28T05:04:44.503Z,1000.32
2017-11-28T05:05:25.022Z,1000.28
2017-11-28T05:06:05.542Z,1000.28
2017-11-28T05:06:46.054Z,1000.31
2017-11-28T05:07:26.581Z,1000.3
2017-11-28T05:08:07.106Z,1000.29
2017-11-28T05:08:47.620Z,1000.35
2017-11-28T05:09:28.149Z,1000.34
2017-11-28T05:10:08.675Z,1000.34
2017-11-28T05:10:49.207Z,1000.37
2017-11-28T05:11:29.716Z,1000.37
2017-11-28T05:12:10.251Z,1000.38
2017-11-28T05:12:50.750Z,1000.34
2017-11-28T05:13:31.287Z,1000.36
2017-11-28T05:14:11.818Z,1000.38
2017-11-28T05:14:52.346Z,1000.34
2017-11-28T05:15:32.862Z,1000.38
2017-11-28T05:16:13.392Z,1000.42
2017-11-28T05:16:53.926Z,1000.4
2017-11-28T05:17:34.448Z,1000.44
2017-11-28T05:18:14.975Z,1000.42
2017-11-28T05:18:55.502Z,1000.43
2017-11-28T05:19:36.017Z,1000.44
2017-11-28T05:20:16.594Z,1000.47
2017-11-28T05:20:57.095Z,1000.5
2017-11-28T05:21:37.596Z,1000.5
2017-11-28T05:22:18.119Z,1000.52
2017-11-28T05:22:58.625Z,1000.51
2017-11-28T05:23:39.134Z,1000.54
2017-11-28T05:24:19.648Z,1000.53
2017-11-28T05:25:00.145Z,1000.5
2017-11-28T05:25:40.675Z,1000.53
2017-11-28T05:26:21.169Z,1000.56
2017-11-28T05:27:01.697Z,1000.57
2017-11-28T05:27:42.190Z,1000.53
2017-11-28T05:28:22.701Z,1000.55
2017-11-28T05:29:03.228Z,1000.54
2017-11-28T05:29:43.750Z,1000.6
2017-11-28T05:30:24.262Z,1000.6
2017-11-28T05:31:04.784Z,1000.58
2017-11-28T05:31:45.319Z,1000.63
2017-11-28T05:32:25.841Z,1000.64
2017-11-28T05:33:06.353Z,1000.68
2017-11-28T05:33:46.886Z,1000.61
2017-11-28T05:34:27.399Z,1000.64
2017-11-28T05:35:07.906Z,1000.68
2017-11-28T05:35:48.436Z,1000.71
2017-11-28T05:36:28.960Z,1000.63
2017-11-28T05:37:09.485Z,1000.68
2017-11-28T05:37:50.024Z,1000.66
2017-11-28T05:38:30.521Z,1000.71
2017-11-28T05:39:11.044Z,1000.7
2017-11-28T05:39:51.564Z,1000.76
2017-11-28T05:40:32.094Z,1000.73
2017-11-28T05:41:12.601Z,1000.74
2017-11-28T05:41:53.138Z,1000.71
2017-11-28T05:42:33.670Z,1000.71
2017-11-28T05:43:14.189Z,1000.73
2017-11-28T05:43:54.732Z,1000.73
2017-11-28T05:44:35.252Z,1000.76
2017-11-28T05:45:15.770Z,1000.68
2017-11-28T05:45:56.284Z,1000.7
2017-11-28T05:46:36.808Z,1000.75
2017-11-28T05:47:17.359Z,1000.74
2017-11-28T05:47:57.881Z,1000.79
2017-11-28T05:48:38.405Z,1000.77
2017-11-28T05:49:18.896Z,1000.81
2017-11-28T05:49:59.419Z,1000.79
2017-11-28T05:50:39.982Z,1000.8
2017-11-28T05:51:20.494Z,1000.78
2017-11-28T05:52:01.024Z,1000.8
2017-11-28T05:52:41.557Z,1000.85
2017-11-28T05:53:22.120Z,1000.8
2017-11-28T05:54:02.627Z,1000.79
2017-11-28T05:54:43.158Z,1000.81
2017-11-28T05:55:23.684Z,1000.85
2017-11-28T05:56:04.209Z,1000.79
2017-11-28T05:56:44.725Z,1000.79
2017-11-28T05:57:25.648Z,1000.83
2017-11-28T05:58:06.178Z,1000.82
2017-11-28T05:58:46.685Z,1000.79
2017-11-28T05:59:27.200Z,1000.78
2017-11-28T06:00:07.709Z,1000.82
2017-11-28T06:00:48.215Z,1000.81
2017-11-28T06:01:28.738Z,1000.86
2017-11-28T06:02:09.260Z,1000.85
2017-11-28T06:02:49.779Z,1000.82
2017-11-28T06:03:30.284Z,1000.88
2017-11-28T06:04:10.788Z,1000.85
2017-11-28T06:04:51.317Z,1000.81
2017-11-28T06:05:31.868Z,1000.82
2017-11-28T06:06:12.375Z,1000.84
2017-11-28T06:06:52.891Z,1000.84
2017-11-28T06:07:33.405Z,1000.81
2017-11-28T06:08:13.911Z,1000.82
2017-11-28T06:08:54.422Z,1000.86
2017-11-28T06:09:34.939Z,1000.84
2017-11-28T06:10:15.469Z,1000.82
2017-11-28T06:10:55.992Z,1000.81
2017-11-28T06:11:36.489Z,1000.79
2017-11-28T06:12:17.012Z,1000.84
2017-11-28T06:12:57.590Z,1000.81
2017-11-28T06:13:38.123Z,1000.79
2017-11-28T06:14:18.631Z,1000.81
2017-11-28T06:14:59.189Z,1000.79
2017-11-28T06:15:39.698Z,1000.77
2017-11-28T06:16:20.224Z,1000.77
2017-11-28T06:17:00.760Z,1000.75
2017-11-28T06:17:41.325Z,1000.79
2017-11-28T06:18:21.848Z,1000.8
2017-11-28T06:19:02.373Z,1000.85
2017-11-28T06:19:42.904Z,1000.83
2017-11-28T06:20:23.436Z,1000.79
2017-11-28T06:21:03.947Z,1000.79
2017-11-28T06:21:44.472Z,1000.8
2017-11-28T06:22:24.985Z,1000.81
2017-11-28T06:23:05.516Z,1000.82
2017-11-28T06:23:46.038Z,1000.86
2017-11-28T06:24:26.557Z,1000.82
2017-11-28T06:25:07.072Z,1000.79
2017-11-28T06:25:47.602Z,1000.83
2017-11-28T06:26:28.133Z,1000.85
2017-11-28T06:27:08.667Z,1000.81
2017-11-28T06:27:49.172Z,1000.8
2017-11-28T06:28:29.679Z,1000.79
2017-11-28T06:29:10.197Z,1000.76
2017-11-28T06:29:50.723Z,1000.79
2017-11-28T06:30:31.217Z,1000.83
2017-11-28T06:31:11.742Z,1000.78
2017-11-28T06:31:52.256Z,1000.8
2017-11-28T06:32:32.778Z,1000.82
2017-11-28T06:33:13.296Z,1000.83
2017-11-28T06:33:53.810Z,1000.81
2017-11-28T06:34:34.331Z,1000.83
2017-11-28T06:35:14.849Z,1000.82
2017-11-28T06:35:55.372Z,1000.85
2017-11-28T06:36:35.922Z,1000.79
2017-11-28T06:37:16.404Z,1000.84
2017-11-28T06:37:56.942Z,1000.87
2017-11-28T06:38:37.471Z,1000.85
2017-11-28T06:39:18.046Z,1000.9
2017-11-28T06:39:58.569Z,1000.86
2017-11-28T06:40:39.117Z,1000.88
2017-11-28T06:41:19.658Z,1000.84
2017-11-28T06:42:00.172Z,1000.81
2017-11-28T06:42:40.690Z,1000.83
2017-11-28T06:43:21.222Z,1000.86
2017-11-28T06:44:01.744Z,1000.88
2017-11-28T06:44:42.271Z,1000.82
2017-11-28T06:45:22.790Z,1000.79
2017-11-28T06:46:03.314Z,1000.79
2017-11-28T06:46:43.843Z,1000.81
2017-11-28T06:47:24.375Z,1000.77
2017-11-28T06:48:04.916Z,1000.79
2017-11-28T06:48:47.992Z,1000.74
2017-11-28T06:49:28.498Z,1000.73
2017-11-28T06:50:09.029Z,1000.74
2017-11-28T06:50:49.555Z,1000.75
2017-11-28T06:51:30.068Z,1000.79
2017-11-28T06:52:10.595Z,1000.78
2017-11-28T06:52:51.122Z,1000.79
2017-11-28T06:53:31.642Z,1000.83
2017-11-28T06:54:12.154Z,1000.84
2017-11-28T06:54:52.684Z,1000.89
2017-11-28T06:55:33.210Z,1000.91
2017-11-28T06:56:13.711Z,1000.9
2017-11-28T06:56:54.261Z,1000.91
2017-11-28T06:57:34.854Z,1000.99
2017-11-28T06:58:15.366Z,1000.97
2017-11-28T06:58:55.896Z,1001
2017-11-28T06:59:36.419Z,1001.03
2017-11-28T07:00:16.975Z,1001.03
2017-11-28T07:00:57.476Z,1001.04
2017-11-28T07:01:37.991Z,1001.01
2017-11-28T07:02:18.507Z,1000.98
2017-11-28T07:02:59.019Z,1001.03
2017-11-28T07:03:39.530Z,1001.03
2017-11-28T07:04:20.064Z,1001.01
2017-11-28T07:05:00.575Z,1001.04
2017-11-28T07:05:41.092Z,1001.04
2017-11-28T07:06:21.610Z,1001.02
2017-11-28T07:07:02.126Z,1001.04
2017-11-28T07:07:42.642Z,1001.07
2017-11-28T07:08:23.156Z,1001.04
2017-11-28T07:09:03.683Z,1001.06
2017-11-28T07:09:44.176Z,1001.08
2017-11-28T07:10:24.690Z,1001.06
2017-11-28T07:11:05.199Z,1001.09
2017-11-28T07:11:45.696Z,1001.1
2017-11-28T07:12:26.310Z,1001.09
2017-11-28T07:13:06.802Z,1001.1
2017-11-28T07:13:47.321Z,1001.1
2017-11-28T07:14:27.843Z,1001.1
2017-11-28T07:15:08.376Z,1001.09
2017-11-28T07:15:48.889Z,1001.1
2017-11-28T07:16:29.421Z,1001.1
2017-11-28T07:17:09.942Z,1001.09
2017-11-28T07:17:50.464Z,1001.08
2017-11-28T07:18:30.992Z,1001.09
2017-11-28T07:19:11.510Z,1001.09
2017-11-28T07:19:52.035Z,1001.09
2017-11-28T07:20:32.539Z,1001.1
2017-11-28T07:21:13.075Z,1001.12
2017-11-28T07:21:53.618Z,1001.11
2017-11-28T07:22:34.129Z,1001.13
2017-11-28T07:23:14.667Z,1001.12
2017-11-28T07:23:55.192Z,1001.14
2017-11-28T07:24:35.705Z,1001.11
2017-11-28T07:25:16.235Z,1001.12
2017-11-28T07:25:56.761Z,1001.16
2017-11-28T07:26:37.366Z,1001.18
2017-11-28T07:27:17.878Z,1001.18
2017-11-28T07:27:58.388Z,1001.2
2017-11-28T07:28:38.885Z,1001.22
2017-11-28T07:29:19.421Z,1001.2
2017-11-28T07:29:59.919Z,1001.23
2017-11-28T07:30:40.430Z,1001.24
2017-11-28T07:31:20.950Z,1001.23
2017-11-28T07:32:01.458Z,1001.26
2017-11-28T07:32:41.974Z,1001.28
2017-11-28T07:33:22.479Z,1001.24
2017-11-28T07:34:02.987Z,1001.25
2017-11-28T07:34:43.514Z,1001.23
2017-11-28T07:35:24.026Z,1001.22
2017-11-28T07:36:04.562Z,1001.25
2017-11-28T07:36:45.062Z,1001.23
2017-11-28T07:37:25.563Z,1001.24
2017-11-28T07:38:06.076Z,1001.27
2017-11-28T07:38:46.583Z,1001.21
2017-11-28T07:39:27.079Z,1001.22
2017-11-28T07:40:07.592Z,1001.22
2017-11-28T07:40:48.111Z,1001.26
2017-11-28T07:41:28.640Z,1001.22
2017-11-28T07:42:09.149Z,1001.23
2017-11-28T07:42:49.661Z,1001.26
2017-11-28T07:43:30.158Z,1001.28
2017-11-28T07:44:10.672Z,1001.28
2017-11-28T07:44:51.192Z,1001.3
2017-11-28T07:45:31.706Z,1001.32
2017-11-28T07:46:12.208Z,1001.31
2017-11-28T07:46:52.740Z,1001.34
2017-11-28T07:47:33.271Z,1001.33
2017-11-28T07:48:13.811Z,1001.32
2017-11-28T07:48:54.336Z,1001.36
2017-11-28T07:49:34.843Z,1001.37
2017-11-28T07:50:15.370Z,1001.36
2017-11-28T07:50:55.885Z,1001.33
2017-11-28T07:51:36.404Z,1001.35
2017-11-28T07:52:16.900Z,1001.32
2017-11-28T07:52:57.418Z,1001.33
2017-11-28T07:53:37.940Z,1001.31
2017-11-28T07:54:18.467Z,1001.3
2017-11-28T07:54:58.984Z,1001.33
2017-11-28T07:55:39.498Z,1001.29
2017-11-28T07:56:20.006Z,1001.28
2017-11-28T07:57:00.510Z,1001.29
2017-11-28T07:57:41.041Z,1001.28
2017-11-28T07:58:21.573Z,1001.32
2017-11-28T07:59:02.108Z,1001.31
2017-11-28T07:59:42.622Z,1001.32
2017-11-28T08:00:23.140Z,1001.33
2017-11-28T08:01:03.671Z,1001.33
2017-11-28T08:01:44.201Z,1001.3
2017-11-28T08:02:24.706Z,1001.33
2017-11-28T08:03:05.221Z,1001.36
2017-11-28T08:03:45.749Z,1001.35
2017-11-28T08:04:26.280Z,1001.35
2017-11-28T08:05:06.778Z,1001.36
2017-11-28T08:05:47.294Z,1001.37
2017-11-28T08:06:27.806Z,1001.33
2017-11-28T08:07:08.326Z,1001.34
2017-11-28T08:07:48.824Z,1001.35
2017-11-28T08:08:29.350Z,1001.33
2017-11-28T08:09:09.871Z,1001.32
2017-11-28T08:09:50.401Z,1001.35
2017-11-28T08:10:30.927Z,1001.32
2017-11-28T08:11:11.435Z,1001.35
2017-11-28T08:11:51.954Z,1001.34
2017-11-28T08:12:32.480Z,1001.32
2017-11-28T08:13:13.009Z,1001.31